Time;durP1;ratioP1;P1;durP2;ratioP2;P2;SDS_P1;SDS_P2;PMS_P1;PMS_P2;Temp;Humidity;BMP_temperature;BMP_pressure;BME280_temperature;BME280_humidity;BME280_pressure;Samples;Min_cycle;Max_cycle;Signal;HPM_P1;HPM_P2
2021/11/13 00:00:58;;;;;;;15.95;11.45;;;14.70;96.70;;;;;;4987104;28;20521;-82
2021/11/13 00:03:26;;;;;;;16.77;11.25;;;14.60;96.70;;;;;;5001326;28;20499;-82
2021/11/13 00:05:54;;;;;;;17.50;11.15;;;14.60;96.70;;;;;;5003692;28;20052;-82
2021/11/13 00:08:22;;;;;;;14.40;11.07;;;14.60;96.70;;;;;;5006081;28;20050;-81
2021/11/13 00:10:53;;;;;;;15.90;11.20;;;14.60;96.70;;;;;;5002854;28;20042;-82
2021/11/13 00:13:24;;;;;;;17.02;12.52;;;14.60;96.70;;;;;;5002028;28;20052;-82
2021/11/13 00:15:55;;;;;;;16.27;12.73;;;14.60;96.70;;;;;;5004024;28;20046;-82
2021/11/13 00:18:23;;;;;;;18.55;13.20;;;14.60;96.70;;;;;;5004067;28;20513;-82
2021/11/13 00:20:51;;;;;;;17.00;12.73;;;14.60;96.70;;;;;;5003751;28;20049;-82
2021/11/13 00:23:19;;;;;;;20.88;13.75;;;14.50;96.70;;;;;;5003941;28;20034;-82
2021/11/13 00:25:47;;;;;;;19.92;13.80;;;14.50;96.70;;;;;;5003204;28;20054;-82
2021/11/13 00:28:19;;;;;;;18.13;13.15;;;14.50;96.70;;;;;;5003274;28;20116;-82
2021/11/13 00:30:48;;;;;;;19.13;13.48;;;14.50;96.70;;;;;;4987954;28;20065;-82
2021/11/13 00:33:17;;;;;;;21.45;13.48;;;14.50;96.70;;;;;;5003194;28;20056;-82
2021/11/13 00:35:45;;;;;;;21.38;13.93;;;14.60;96.70;;;;;;5001711;28;20042;-81
2021/11/13 00:38:14;;;;;;;17.77;14.07;;;14.50;96.70;;;;;;4985202;28;20045;-81
2021/11/13 00:40:42;;;;;;;22.80;13.88;;;14.60;96.70;;;;;;5001065;28;20448;-81
2021/11/13 00:43:10;;;;;;;18.05;13.98;;;14.60;96.70;;;;;;5001631;28;20189;-81
2021/11/13 00:45:38;;;;;;;19.30;14.68;;;14.50;96.70;;;;;;5001496;28;20045;-81
2021/11/13 00:48:07;;;;;;;21.02;14.98;;;14.50;96.70;;;;;;5000897;28;20407;-81
2021/11/13 00:50:37;;;;;;;18.75;14.15;;;14.50;96.70;;;;;;4984039;28;20418;-81
2021/11/13 00:53:05;;;;;;;20.15;14.18;;;14.50;96.70;;;;;;5021412;28;20507;-81
2021/11/13 00:55:33;;;;;;;18.75;14.15;;;14.50;96.70;;;;;;5016975;28;20053;-81
2021/11/13 00:58:01;;;;;;;20.40;14.15;;;14.50;96.70;;;;;;5001321;28;20049;-80
2021/11/13 01:00:30;;;;;;;19.25;13.45;;;14.50;96.70;;;;;;5000021;28;20250;-80
2021/11/13 01:02:58;;;;;;;17.00;13.60;;;14.50;96.70;;;;;;5013774;28;20062;-80
2021/11/13 01:05:27;;;;;;;16.55;12.68;;;14.50;96.70;;;;;;5000695;28;20053;-80
2021/11/13 01:07:56;;;;;;;18.65;12.27;;;14.40;96.70;;;;;;5000154;28;20477;-81
2021/11/13 01:10:25;;;;;;;17.02;12.43;;;14.30;96.70;;;;;;4995652;28;20574;-80
2021/11/13 01:12:53;;;;;;;17.45;11.88;;;14.30;96.70;;;;;;4999578;28;20481;-81
2021/11/13 01:15:21;;;;;;;15.82;12.20;;;14.30;96.70;;;;;;4984659;28;20518;-81
2021/11/13 01:17:50;;;;;;;14.77;10.88;;;14.20;96.70;;;;;;5002210;28;20034;-80
2021/11/13 01:20:20;;;;;;;19.88;13.00;;;14.20;96.70;;;;;;4999341;28;20515;-80
2021/11/13 01:22:48;;;;;;;17.08;12.65;;;14.20;96.70;;;;;;5004925;28;20044;-83
2021/11/13 01:25:18;;;;;;;20.20;13.25;;;14.20;96.70;;;;;;5000466;28;20069;-81
2021/11/13 01:27:47;;;;;;;15.07;11.45;;;14.20;96.70;;;;;;4989036;28;20078;-82
2021/11/13 01:30:16;;;;;;;16.55;11.23;;;14.00;96.70;;;;;;4998833;28;20037;-82
2021/11/13 01:32:45;;;;;;;17.05;11.73;;;14.00;96.70;;;;;;5002728;28;20050;-82
2021/11/13 01:35:15;;;;;;;14.43;10.77;;;13.90;96.70;;;;;;4996200;28;20034;-82
2021/11/13 01:37:44;;;;;;;16.42;10.68;;;13.90;96.70;;;;;;4985468;28;20677;-82
2021/11/13 01:40:15;;;;;;;14.10;10.57;;;13.90;96.70;;;;;;4999234;28;20073;-82
2021/11/13 01:42:46;;;;;;;13.15;10.27;;;13.80;96.70;;;;;;5003905;28;20042;-82
2021/11/13 01:45:15;;;;;;;13.00;9.68;;;13.80;96.70;;;;;;5002469;28;20037;-82
2021/11/13 01:47:44;;;;;;;14.27;9.50;;;13.90;96.70;;;;;;5001223;28;20034;-81
2021/11/13 01:50:16;;;;;;;13.88;9.85;;;13.90;96.70;;;;;;5002954;28;20602;-82
2021/11/13 01:52:45;;;;;;;13.23;8.95;;;13.90;96.70;;;;;;5001623;28;20046;-82
2021/11/13 01:55:15;;;;;;;12.75;8.80;;;13.90;96.70;;;;;;5004452;28;20065;-81
2021/11/13 01:57:48;;;;;;;11.80;8.98;;;13.90;96.70;;;;;;5000061;28;20046;-82
2021/11/13 02:00:20;;;;;;;13.77;8.65;;;13.90;96.70;;;;;;5002971;28;20049;-82
2021/11/13 02:02:48;;;;;;;13.13;9.52;;;13.80;96.70;;;;;;5004945;28;20578;-82
2021/11/13 02:05:16;;;;;;;12.43;9.25;;;13.70;96.70;;;;;;5004113;28;20573;-82
2021/11/13 02:07:45;;;;;;;11.55;8.60;;;13.60;96.70;;;;;;5001146;28;20053;-82
2021/11/13 02:10:16;;;;;;;11.73;8.13;;;13.60;96.70;;;;;;4983562;28;20251;-81
2021/11/13 02:12:45;;;;;;;12.75;8.98;;;13.70;96.70;;;;;;5020826;28;20054;-82
2021/11/13 02:15:14;;;;;;;11.05;8.27;;;13.80;96.70;;;;;;4988785;28;20042;-81
2021/11/13 02:17:42;;;;;;;11.45;8.60;;;13.80;96.70;;;;;;5006439;28;20052;-82
2021/11/13 02:20:28;;;;;;;9.77;7.43;;;13.60;96.70;;;;;;4989709;28;20061;-81
2021/11/13 02:23:00;;;;;;;14.18;8.73;;;13.50;96.70;;;;;;5005976;28;20054;-81
2021/11/13 02:25:30;;;;;;;13.32;8.75;;;13.40;96.70;;;;;;5010900;28;20046;-82
2021/11/13 02:27:58;;;;;;;10.85;8.15;;;13.40;96.70;;;;;;5003870;28;20042;-82
2021/11/13 02:30:27;;;;;;;12.30;8.88;;;13.40;96.70;;;;;;5005091;28;20373;-82
2021/11/13 02:32:56;;;;;;;10.68;8.15;;;13.40;96.70;;;;;;5003239;28;20292;-82
2021/11/13 02:35:31;;;;;;;12.95;8.30;;;13.50;96.70;;;;;;5007722;28;20044;-82
2021/11/13 02:38:10;;;;;;;11.43;7.95;;;13.60;96.70;;;;;;5004856;28;20052;-82
2021/11/13 02:40:39;;;;;;;10.48;7.82;;;13.50;96.70;;;;;;5005430;28;20173;-82
2021/11/13 02:43:07;;;;;;;8.75;7.22;;;13.40;96.70;;;;;;5006615;28;20034;-82
2021/11/13 02:45:36;;;;;;;15.30;8.95;;;13.30;96.70;;;;;;4990092;28;20499;-82
2021/11/13 02:48:06;;;;;;;9.45;7.68;;;13.30;96.70;;;;;;5007040;28;20140;-82
2021/11/13 02:50:36;;;;;;;10.75;8.23;;;13.30;96.70;;;;;;5005205;28;20053;-82
2021/11/13 02:53:11;;;;;;;9.10;7.10;;;13.40;96.70;;;;;;4999435;28;20566;-82
2021/11/13 02:55:39;;;;;;;7.90;6.78;;;13.40;96.70;;;;;;4988455;28;20049;-82
2021/11/13 02:58:07;;;;;;;8.48;6.72;;;13.40;96.70;;;;;;5016987;28;20967;-82
2021/11/13 03:00:37;;;;;;;8.95;7.03;;;13.30;96.70;;;;;;5004782;28;20060;-82
2021/11/13 03:03:05;;;;;;;8.90;7.05;;;13.40;96.70;;;;;;4986628;28;20042;-83
2021/11/13 03:05:44;;;;;;;10.77;7.32;;;13.30;96.70;;;;;;4990602;28;20042;-82
2021/11/13 03:08:12;;;;;;;9.18;6.78;;;13.20;96.70;;;;;;5008455;28;20038;-82
2021/11/13 03:10:40;;;;;;;8.10;6.97;;;13.10;96.70;;;;;;5005358;28;20050;-82
2021/11/13 03:13:08;;;;;;;9.15;7.05;;;13.10;96.70;;;;;;5003684;28;20053;-82
2021/11/13 03:15:36;;;;;;;7.93;6.72;;;13.30;96.70;;;;;;5003748;28;20061;-82
2021/11/13 03:18:04;;;;;;;11.13;7.50;;;13.30;96.70;;;;;;4984111;28;20046;-82
2021/11/13 03:20:32;;;;;;;11.98;8.57;;;13.20;96.70;;;;;;5006134;28;20045;-82
2021/11/13 03:23:02;;;;;;;11.20;8.50;;;13.20;96.70;;;;;;5006589;28;20105;-82
2021/11/13 03:25:39;;;;;;;13.60;8.93;;;13.20;96.70;;;;;;5003884;28;20104;-82
2021/11/13 03:28:11;;;;;;;13.20;9.55;;;13.30;96.70;;;;;;5005114;28;20038;-82
2021/11/13 03:30:41;;;;;;;13.90;9.43;;;13.30;96.70;;;;;;5003688;28;20073;-82
2021/11/13 03:33:09;;;;;;;16.60;10.30;;;13.40;96.70;;;;;;5005268;28;20106;-82
2021/11/13 03:35:37;;;;;;;18.45;10.45;;;13.40;96.70;;;;;;5003677;28;20325;-82
2021/11/13 03:38:09;;;;;;;17.73;11.27;;;13.40;96.70;;;;;;5004140;28;20038;-82
2021/11/13 03:40:39;;;;;;;18.10;11.25;;;13.30;96.70;;;;;;5000627;28;20053;-82
2021/11/13 03:43:08;;;;;;;15.85;10.48;;;13.40;96.70;;;;;;5008074;28;20399;-82
2021/11/13 03:45:37;;;;;;;15.75;10.57;;;13.40;96.70;;;;;;5004959;28;20044;-82
2021/11/13 03:48:05;;;;;;;13.80;9.77;;;13.40;96.70;;;;;;5002930;28;20049;-82
2021/11/13 03:50:35;;;;;;;15.77;10.10;;;13.40;96.70;;;;;;5017289;28;20041;-82
2021/11/13 03:53:06;;;;;;;13.60;9.52;;;13.50;96.70;;;;;;5017603;28;20065;-82
2021/11/13 03:55:35;;;;;;;13.25;9.63;;;13.50;96.70;;;;;;5020667;28;20411;-82
2021/11/13 03:58:04;;;;;;;12.32;9.43;;;13.40;96.70;;;;;;5002951;28;20058;-82
2021/11/13 04:00:33;;;;;;;13.15;9.32;;;13.40;96.70;;;;;;4999930;28;20121;-82
2021/11/13 04:03:01;;;;;;;13.93;10.68;;;13.40;96.70;;;;;;4984953;28;20527;-82
2021/11/13 04:05:29;;;;;;;14.25;11.25;;;13.40;96.70;;;;;;5006423;28;20558;-82
2021/11/13 04:07:57;;;;;;;15.35;11.13;;;13.40;96.70;;;;;;5003479;28;20362;-81
2021/11/13 04:10:27;;;;;;;18.10;11.63;;;13.30;96.70;;;;;;5001709;28;20046;-82
2021/11/13 04:12:55;;;;;;;14.05;10.40;;;13.40;96.70;;;;;;5003150;28;20034;-82
2021/11/13 04:15:23;;;;;;;17.77;11.15;;;13.40;96.70;;;;;;5005259;28;20515;-82
2021/11/13 04:17:54;;;;;;;14.65;11.35;;;13.40;96.70;;;;;;4986403;28;20050;-82
2021/11/13 04:20:22;;;;;;;14.35;10.50;;;13.30;96.70;;;;;;5004681;28;20541;-82
2021/11/13 04:22:52;;;;;;;13.15;9.40;;;13.40;96.70;;;;;;4986355;28;20038;-82
2021/11/13 04:25:23;;;;;;;12.65;10.02;;;13.40;96.70;;;;;;5004589;28;20538;-82
2021/11/13 04:27:52;;;;;;;14.23;9.43;;;13.40;96.70;;;;;;5003710;28;20041;-82
2021/11/13 04:30:20;;;;;;;13.25;9.07;;;13.40;96.70;;;;;;5001077;28;20558;-82
2021/11/13 04:32:50;;;;;;;13.18;10.27;;;13.30;96.70;;;;;;4986017;28;20600;-82
2021/11/13 04:35:33;;;;;;;15.32;8.95;;;13.30;96.70;;;;;;5001944;28;20165;-80
2021/11/13 04:38:04;;;;;;;12.70;9.75;;;13.30;96.70;;;;;;5004252;28;20084;-81
2021/11/13 04:40:35;;;;;;;12.70;9.27;;;13.20;96.70;;;;;;5002914;28;20050;-81
2021/11/13 04:43:05;;;;;;;11.52;8.20;;;13.20;96.70;;;;;;4998324;28;20045;-81
2021/11/13 04:45:33;;;;;;;11.68;7.80;;;13.20;96.70;;;;;;5003223;28;20034;-80
2021/11/13 04:48:01;;;;;;;11.18;8.30;;;13.20;96.70;;;;;;4983595;28;20081;-80
2021/11/13 04:50:29;;;;;;;9.15;7.63;;;13.20;96.70;;;;;;5015062;28;20550;-81
2021/11/13 04:52:58;;;;;;;11.10;7.90;;;13.20;96.70;;;;;;5004676;28;20088;-81
2021/11/13 04:55:28;;;;;;;10.18;7.45;;;13.10;96.70;;;;;;4999344;28;20065;-81
2021/11/13 04:57:56;;;;;;;10.55;6.88;;;13.10;96.70;;;;;;5004193;28;20129;-81
2021/11/13 05:00:27;;;;;;;9.38;7.32;;;13.10;96.70;;;;;;5004297;28;20042;-80
2021/11/13 05:02:56;;;;;;;11.80;8.25;;;13.10;96.70;;;;;;5000944;28;20038;-81
2021/11/13 05:05:25;;;;;;;9.77;6.75;;;13.10;96.70;;;;;;4984556;28;20088;-80
2021/11/13 05:07:53;;;;;;;8.85;7.20;;;13.00;96.70;;;;;;5003559;28;20046;-81
2021/11/13 05:10:21;;;;;;;11.13;7.32;;;13.10;96.70;;;;;;4985352;28;20512;-81
2021/11/13 05:12:50;;;;;;;9.90;7.20;;;13.10;96.70;;;;;;4983577;28;20054;-81
2021/11/13 05:15:18;;;;;;;9.77;7.28;;;13.20;96.70;;;;;;5003596;28;20050;-80
2021/11/13 05:17:48;;;;;;;10.38;7.25;;;13.10;96.70;;;;;;5003216;28;20042;-81
2021/11/13 05:20:18;;;;;;;9.93;7.35;;;13.10;96.70;;;;;;5002971;28;20041;-81
2021/11/13 05:22:48;;;;;;;7.65;6.65;;;13.10;96.70;;;;;;4988413;28;20045;-81
2021/11/13 05:25:20;;;;;;;9.15;6.90;;;13.10;96.70;;;;;;5000639;28;20083;-80
2021/11/13 05:27:49;;;;;;;11.02;7.30;;;13.00;96.70;;;;;;5016888;28;20042;-81
2021/11/13 05:30:18;;;;;;;8.88;7.20;;;13.10;96.70;;;;;;4983981;28;20042;-80
2021/11/13 05:32:49;;;;;;;9.73;6.60;;;13.00;96.70;;;;;;5000814;28;20481;-80
2021/11/13 05:35:18;;;;;;;12.32;7.22;;;12.90;96.70;;;;;;5000015;28;20713;-81
2021/11/13 05:37:47;;;;;;;10.10;6.88;;;13.00;96.70;;;;;;4996841;28;20042;-81
2021/11/13 05:40:18;;;;;;;8.43;6.75;;;13.10;96.70;;;;;;4998705;28;20988;-80
2021/11/13 05:42:52;;;;;;;7.00;6.15;;;12.90;96.70;;;;;;4983749;28;20128;-82
2021/11/13 05:45:20;;;;;;;9.98;6.47;;;12.90;96.70;;;;;;5017849;28;20056;-82
2021/11/13 05:47:52;;;;;;;8.02;6.72;;;12.80;96.70;;;;;;5005886;28;20042;-82
2021/11/13 05:50:21;;;;;;;10.98;7.22;;;12.60;96.70;;;;;;5005439;28;20066;-82
2021/11/13 05:52:51;;;;;;;8.65;6.82;;;12.60;96.70;;;;;;5005969;28;20400;-82
2021/11/13 05:55:23;;;;;;;9.73;6.68;;;12.70;96.70;;;;;;5007870;28;20120;-81
2021/11/13 05:57:53;;;;;;;8.57;6.53;;;12.90;96.70;;;;;;5003989;28;20041;-80
2021/11/13 06:00:23;;;;;;;10.18;7.40;;;12.90;96.70;;;;;;4988432;28;20042;-81
2021/11/13 06:02:53;;;;;;;9.05;6.55;;;12.80;96.70;;;;;;5004563;28;20603;-81
2021/11/13 06:05:22;;;;;;;8.93;7.38;;;12.80;96.70;;;;;;5002906;28;20050;-81
2021/11/13 06:07:51;;;;;;;10.57;6.88;;;12.80;96.70;;;;;;5005077;28;20470;-81
2021/11/13 06:10:19;;;;;;;8.48;6.30;;;12.80;96.70;;;;;;5003687;28;20037;-81
2021/11/13 06:12:48;;;;;;;10.00;6.93;;;12.90;96.70;;;;;;5008025;28;20065;-81
2021/11/13 06:15:16;;;;;;;9.02;6.93;;;12.90;96.70;;;;;;5007819;28;20492;-81
2021/11/13 06:17:45;;;;;;;11.30;7.60;;;12.90;96.70;;;;;;5003681;28;20049;-80
2021/11/13 06:20:16;;;;;;;8.07;7.15;;;12.80;96.70;;;;;;5003880;28;20400;-81
2021/11/13 06:22:44;;;;;;;10.68;7.28;;;12.80;96.70;;;;;;4983627;28;20073;-81
2021/11/13 06:25:14;;;;;;;10.85;7.70;;;12.90;96.70;;;;;;4986982;28;20046;-81
2021/11/13 06:27:43;;;;;;;10.85;7.85;;;12.90;96.70;;;;;;5020050;28;20064;-81
2021/11/13 06:30:13;;;;;;;10.63;7.18;;;13.00;96.70;;;;;;5004755;28;20559;-81
2021/11/13 06:32:43;;;;;;;11.35;8.05;;;13.00;96.70;;;;;;5005985;28;20046;-81
2021/11/13 06:35:13;;;;;;;12.43;8.13;;;13.00;96.70;;;;;;5008169;28;20046;-81
2021/11/13 06:37:43;;;;;;;14.13;8.00;;;13.10;96.70;;;;;;5002891;28;20045;-81
2021/11/13 06:40:13;;;;;;;10.52;8.23;;;13.20;96.70;;;;;;5000397;28;20088;-81
2021/11/13 06:42:46;;;;;;;13.55;9.13;;;13.20;96.70;;;;;;5002029;28;20069;-81
2021/11/13 06:45:15;;;;;;;11.60;8.88;;;13.10;96.70;;;;;;5003289;28;20050;-81
2021/11/13 06:47:43;;;;;;;16.60;9.85;;;13.20;96.70;;;;;;5003587;28;20038;-81
2021/11/13 06:50:13;;;;;;;13.98;9.15;;;13.20;96.70;;;;;;5000908;28;20046;-82
2021/11/13 06:52:42;;;;;;;15.82;10.18;;;13.20;96.70;;;;;;5005611;28;20492;-82
2021/11/13 06:55:12;;;;;;;13.52;9.48;;;13.20;96.70;;;;;;4986490;28;20112;-80
2021/11/13 06:57:43;;;;;;;11.82;8.90;;;13.30;96.70;;;;;;4998420;28;20054;-81
2021/11/13 07:00:14;;;;;;;10.40;7.70;;;13.40;96.70;;;;;;4985297;28;20548;-82
2021/11/13 07:02:43;;;;;;;12.43;7.72;;;13.60;96.70;;;;;;5004585;28;20052;-82
2021/11/13 07:05:18;;;;;;;10.80;6.93;;;13.50;96.70;;;;;;5002064;28;20052;-82
2021/11/13 07:07:47;;;;;;;11.32;6.68;;;13.50;96.70;;;;;;5002830;28;20459;-80
2021/11/13 07:10:16;;;;;;;10.00;6.50;;;13.50;96.70;;;;;;5002282;28;20034;-78
2021/11/13 07:12:45;;;;;;;10.18;7.18;;;13.50;96.70;;;;;;5004257;28;20459;-78
2021/11/13 07:15:14;;;;;;;12.05;6.82;;;13.60;96.70;;;;;;5000023;28;20052;-78
2021/11/13 07:17:43;;;;;;;9.93;6.53;;;13.60;96.70;;;;;;5000491;28;20037;-77
2021/11/13 07:20:12;;;;;;;9.88;7.55;;;13.50;96.70;;;;;;5001734;28;20046;-76
2021/11/13 07:22:42;;;;;;;10.23;6.93;;;13.60;96.70;;;;;;5003048;28;20144;-78
2021/11/13 07:25:14;;;;;;;10.68;7.45;;;13.70;96.70;;;;;;5000444;28;20049;-77
2021/11/13 07:27:46;;;;;;;13.25;8.15;;;13.70;96.70;;;;;;5001050;28;20046;-76
2021/11/13 07:30:16;;;;;;;11.73;8.48;;;13.70;96.70;;;;;;4999065;28;20613;-78
2021/11/13 07:32:46;;;;;;;13.05;9.07;;;13.70;96.70;;;;;;5004712;28;20381;-77
2021/11/13 07:35:14;;;;;;;11.05;8.38;;;13.80;96.70;;;;;;5000263;28;20061;-77
2021/11/13 07:37:42;;;;;;;16.02;9.05;;;13.80;96.70;;;;;;4998158;28;20046;-77
2021/11/13 07:40:12;;;;;;;14.63;9.23;;;13.80;96.70;;;;;;4994723;28;20597;-78
2021/11/13 07:42:40;;;;;;;11.48;8.35;;;13.70;96.70;;;;;;4982664;28;20042;-78
2021/11/13 07:45:09;;;;;;;11.52;8.70;;;13.80;96.70;;;;;;4984834;28;20781;-78
2021/11/13 07:47:41;;;;;;;11.63;9.25;;;13.80;96.70;;;;;;4998419;28;20614;-79
2021/11/13 07:50:11;;;;;;;11.70;8.90;;;13.80;96.70;;;;;;4998319;28;20042;-78
2021/11/13 07:52:39;;;;;;;11.75;8.38;;;13.90;96.70;;;;;;4999668;28;20045;-78
2021/11/13 07:55:08;;;;;;;12.55;7.75;;;13.80;96.70;;;;;;4985629;28;20131;-79
2021/11/13 07:57:37;;;;;;;11.07;8.13;;;13.80;96.70;;;;;;5003343;28;20151;-84
2021/11/13 08:00:08;;;;;;;11.85;7.35;;;13.80;96.70;;;;;;5000498;28;20030;-81
2021/11/13 08:02:40;;;;;;;11.20;7.25;;;13.90;96.70;;;;;;5002745;28;20100;-82
2021/11/13 08:05:09;;;;;;;10.60;7.47;;;14.00;96.70;;;;;;4998954;28;20716;-81
2021/11/13 08:07:37;;;;;;;12.20;7.30;;;14.10;96.70;;;;;;5002594;28;20038;-82
2021/11/13 08:10:07;;;;;;;11.60;8.40;;;14.20;96.70;;;;;;4983644;28;20144;-81
2021/11/13 08:12:35;;;;;;;12.07;7.38;;;14.30;96.70;;;;;;5002853;28;20041;-84
2021/11/13 08:15:06;;;;;;;11.02;7.75;;;14.30;96.70;;;;;;5002726;28;20046;-82
2021/11/13 08:17:35;;;;;;;10.65;7.47;;;14.40;96.70;;;;;;5005102;28;20041;-85
2021/11/13 08:20:04;;;;;;;22.10;15.40;;;14.50;96.70;;;;;;5002257;28;20144;-84
2021/11/13 08:22:36;;;;;;;15.52;10.30;;;14.60;96.70;;;;;;5003246;28;20617;-84
2021/11/13 08:25:08;;;;;;;13.60;9.85;;;14.60;96.70;;;;;;5002624;28;20050;-85
2021/11/13 08:27:37;;;;;;;12.88;9.98;;;14.70;96.70;;;;;;4986898;28;20097;-86
2021/11/13 08:30:08;;;;;;;11.10;8.93;;;14.80;96.70;;;;;;4999101;28;20045;-86
2021/11/13 08:32:37;;;;;;;12.05;9.35;;;14.90;96.70;;;;;;5003202;28;20085;-86
2021/11/13 08:35:07;;;;;;;12.38;8.88;;;15.00;96.70;;;;;;5000549;28;20046;-86
2021/11/13 08:37:36;;;;;;;16.67;9.82;;;15.10;96.70;;;;;;5002962;28;20042;-84
2021/11/13 08:40:07;;;;;;;14.40;10.85;;;15.20;96.70;;;;;;5003672;28;20050;-85
2021/11/13 08:42:35;;;;;;;21.90;16.17;;;15.20;96.70;;;;;;4986559;28;20230;-85
2021/11/13 08:45:07;;;;;;;27.75;19.98;;;15.30;96.70;;;;;;4986371;28;20103;-83
2021/11/13 08:47:36;;;;;;;20.17;13.07;;;15.40;96.70;;;;;;4980889;28;20549;-85
2021/11/13 08:50:06;;;;;;;20.40;12.57;;;15.30;96.70;;;;;;4976353;28;20038;-85
2021/11/13 08:52:34;;;;;;;18.55;11.50;;;15.40;96.70;;;;;;4971500;28;20052;-84
2021/11/13 08:55:03;;;;;;;15.75;10.32;;;15.40;96.70;;;;;;4976422;28;20062;-83
2021/11/13 08:57:33;;;;;;;16.35;11.85;;;15.60;96.70;;;;;;4975675;28;20148;-83
2021/11/13 09:00:01;;;;;;;19.98;12.02;;;15.70;96.70;;;;;;4978439;28;20159;-82
2021/11/13 09:02:32;;;;;;;16.98;9.60;;;15.90;96.70;;;;;;4978873;28;20046;-83
2021/11/13 09:05:00;;;;;;;13.30;9.52;;;16.10;96.70;;;;;;4978973;28;20042;-83
2021/11/13 09:07:28;;;;;;;7.07;5.72;;;16.00;96.70;;;;;;4977278;28;20111;-82
2021/11/13 09:09:57;;;;;;;9.13;6.38;;;16.00;96.70;;;;;;4996436;28;20390;-83
2021/11/13 09:12:27;;;;;;;9.98;5.95;;;16.10;96.70;;;;;;5017202;28;20670;-82
2021/11/13 09:14:59;;;;;;;8.95;4.97;;;16.00;96.70;;;;;;5004721;28;20038;-83
2021/11/13 09:17:31;;;;;;;9.48;6.32;;;16.10;96.70;;;;;;5000416;28;20465;-82
2021/11/13 09:19:59;;;;;;;9.10;5.93;;;16.20;96.70;;;;;;5000805;28;20069;-82
2021/11/13 09:22:27;;;;;;;9.32;6.60;;;16.30;96.70;;;;;;4998481;28;20029;-82
2021/11/13 09:24:56;;;;;;;7.70;6.22;;;16.40;96.70;;;;;;5002349;28;20042;-82
2021/11/13 09:27:29;;;;;;;15.25;10.43;;;16.50;96.70;;;;;;5014588;28;20108;-83
2021/11/13 09:29:57;;;;;;;9.23;5.82;;;16.50;96.70;;;;;;5001128;28;20115;-82
2021/11/13 09:32:33;;;;;;;10.00;5.80;;;16.50;96.70;;;;;;4995718;28;20460;-80
2021/11/13 09:35:06;;;;;;;9.52;5.78;;;16.60;96.70;;;;;;4980855;28;20427;-80
2021/11/13 09:37:36;;;;;;;8.20;5.63;;;16.70;96.70;;;;;;4997685;28;20042;-82
2021/11/13 09:40:06;;;;;;;8.68;5.57;;;16.80;96.70;;;;;;5015528;28;20050;-81
2021/11/13 09:42:35;;;;;;;8.13;5.32;;;16.90;96.70;;;;;;4999376;28;20046;-83
2021/11/13 09:45:04;;;;;;;6.07;4.82;;;17.00;96.70;;;;;;5001364;28;20056;-83
2021/11/13 09:47:34;;;;;;;6.43;5.00;;;17.10;96.70;;;;;;4996807;28;20066;-85
2021/11/13 09:50:04;;;;;;;6.53;4.30;;;17.10;96.70;;;;;;5000613;28;20594;-83
2021/11/13 09:52:33;;;;;;;7.97;4.82;;;17.10;96.70;;;;;;5000880;28;20520;-81
2021/11/13 09:55:02;;;;;;;7.05;4.20;;;17.20;96.70;;;;;;5000062;28;20062;-81
2021/11/13 09:57:30;;;;;;;7.32;4.90;;;17.20;96.70;;;;;;4987225;28;20308;-81
2021/11/13 09:59:58;;;;;;;6.55;4.32;;;17.20;96.70;;;;;;4985376;28;20119;-83
2021/11/13 10:02:26;;;;;;;9.07;4.05;;;17.30;96.70;;;;;;5000454;28;20042;-83
2021/11/13 10:04:56;;;;;;;11.65;6.97;;;17.40;96.70;;;;;;4998206;28;20046;-84
2021/11/13 10:07:25;;;;;;;12.35;7.80;;;17.40;96.70;;;;;;4999239;28;20041;-83
2021/11/13 10:09:53;;;;;;;15.18;9.32;;;17.50;96.70;;;;;;4978900;28;20521;-82
2021/11/13 10:12:33;;;;;;;10.63;7.00;;;17.60;96.70;;;;;;5000695;28;20049;-81
2021/11/13 10:15:21;;;;;;;9.80;5.10;;;17.80;96.70;;;;;;4998350;28;20500;-82
2021/11/13 10:18:11;;;;;;;10.90;6.35;;;17.90;96.70;;;;;;4984585;28;20050;-81
2021/11/13 10:20:43;;;;;;;8.77;5.80;;;17.90;96.70;;;;;;4997585;28;20139;-82
2021/11/13 10:23:31;;;;;;;9.05;5.55;;;17.80;96.70;;;;;;4999580;28;20100;-81
2021/11/13 10:26:03;;;;;;;7.43;5.57;;;17.90;96.70;;;;;;4984400;28;20046;-80
2021/11/13 10:28:32;;;;;;;9.10;5.20;;;18.00;96.70;;;;;;4999979;28;20045;-81
2021/11/13 10:31:09;;;;;;;6.25;5.25;;;18.00;96.70;;;;;;4999523;28;20038;-82
2021/11/13 10:33:38;;;;;;;7.40;5.10;;;18.10;96.70;;;;;;5000876;28;20412;-76
2021/11/13 10:36:08;;;;;;;7.18;4.78;;;18.20;96.70;;;;;;5000615;28;20504;-80
2021/11/13 10:38:38;;;;;;;8.18;5.10;;;18.30;96.70;;;;;;5002989;28;20049;-80
2021/11/13 10:41:10;;;;;;;7.65;5.55;;;18.40;96.70;;;;;;5000516;28;20508;-79
2021/11/13 10:43:41;;;;;;;8.40;5.30;;;18.50;96.70;;;;;;5000800;28;20037;-80
2021/11/13 10:46:11;;;;;;;9.20;5.95;;;18.50;96.70;;;;;;5003054;28;20050;-80
2021/11/13 10:48:42;;;;;;;8.48;6.93;;;18.50;96.70;;;;;;4979982;28;20057;-80
2021/11/13 10:51:15;;;;;;;9.55;5.93;;;18.60;96.70;;;;;;5002749;28;20042;-79
2021/11/13 10:53:45;;;;;;;8.20;4.05;;;18.70;96.70;;;;;;4998750;28;20096;-78
2021/11/13 10:56:18;;;;;;;5.88;4.00;;;18.70;96.70;;;;;;4997385;28;20165;-77
2021/11/13 10:58:57;;;;;;;6.57;3.88;;;18.80;96.70;;;;;;5001043;28;20045;-77
2021/11/13 11:01:31;;;;;;;8.57;4.95;;;18.90;96.70;;;;;;5000982;28;20033;-77
2021/11/13 11:04:07;;;;;;;7.88;5.25;;;18.70;96.70;;;;;;5009283;28;20042;-80
2021/11/13 11:06:38;;;;;;;8.75;5.03;;;18.80;96.70;;;;;;4998515;28;20034;-78
2021/11/13 11:09:20;;;;;;;9.55;4.30;;;19.00;96.70;;;;;;5001134;28;20042;-77
2021/11/13 11:11:53;;;;;;;7.32;4.40;;;19.00;96.70;;;;;;4980199;28;20042;-79
2021/11/13 11:14:24;;;;;;;6.78;4.35;;;18.80;96.70;;;;;;5001453;28;20365;-80
2021/11/13 11:16:54;;;;;;;19.80;13.35;;;18.70;96.70;;;;;;4999776;28;20135;-79
2021/11/13 11:19:26;;;;;;;7.07;5.30;;;18.60;96.70;;;;;;4983519;28;20136;-77
2021/11/13 11:21:59;;;;;;;7.20;4.72;;;18.50;96.70;;;;;;4998158;28;20564;-78
2021/11/13 11:24:39;;;;;;;10.00;4.43;;;18.40;96.70;;;;;;5001374;28;20113;-76
2021/11/13 11:27:15;;;;;;;8.02;4.90;;;18.60;96.70;;;;;;4999843;28;20050;-77
2021/11/13 11:29:50;;;;;;;6.07;2.95;;;18.90;96.70;;;;;;4985703;28;20041;-78
2021/11/13 11:32:20;;;;;;;4.70;2.83;;;19.20;96.70;;;;;;5002395;28;20554;-77
2021/11/13 11:34:51;;;;;;;5.10;3.40;;;19.50;96.70;;;;;;4999953;28;20054;-79
2021/11/13 11:37:23;;;;;;;5.43;2.90;;;19.70;96.70;;;;;;4998975;28;20037;-79
2021/11/13 11:39:54;;;;;;;4.18;2.30;;;19.80;96.70;;;;;;5006237;28;20062;-79
2021/11/13 11:42:25;;;;;;;6.07;3.00;;;19.90;96.70;;;;;;4999646;28;20874;-79
2021/11/13 11:44:54;;;;;;;6.70;2.67;;;20.00;96.70;;;;;;5002380;28;20145;-78
2021/11/13 11:47:23;;;;;;;6.53;2.38;;;19.90;96.70;;;;;;5000234;28;20632;-78
2021/11/13 11:49:56;;;;;;;3.63;2.15;;;20.00;96.70;;;;;;5000444;28;20065;-78
2021/11/13 11:52:28;;;;;;;4.00;2.20;;;20.10;96.70;;;;;;5000371;28;20079;-79
2021/11/13 11:54:57;;;;;;;3.17;2.00;;;20.40;96.70;;;;;;4999383;28;20764;-80
2021/11/13 11:57:29;;;;;;;4.20;2.47;;;20.60;96.70;;;;;;4983613;28;20038;-81
2021/11/13 11:59:58;;;;;;;2.47;1.70;;;20.80;96.70;;;;;;4998094;28;20033;-81
2021/11/13 12:02:36;;;;;;;4.47;2.10;;;20.80;96.70;;;;;;5001849;28;20046;-82
2021/11/13 12:05:10;;;;;;;10.57;8.10;;;20.80;96.70;;;;;;4997379;28;20045;-81
2021/11/13 12:07:41;;;;;;;7.78;4.40;;;20.50;96.70;;;;;;4997104;28;20042;-81
2021/11/13 12:10:12;;;;;;;5.80;2.85;;;20.70;96.70;;;;;;4983624;28;20405;-79
2021/11/13 12:12:58;;;;;;;4.47;2.25;;;20.60;96.70;;;;;;4999532;28;20788;-79
2021/11/13 12:15:28;;;;;;;3.55;2.17;;;20.40;96.70;;;;;;4998944;28;20050;-78
2021/11/13 12:18:13;;;;;;;4.63;2.13;;;20.20;96.70;;;;;;4999830;28;20061;-79
2021/11/13 12:20:42;;;;;;;4.15;2.20;;;20.20;96.70;;;;;;4982697;28;20179;-79
2021/11/13 12:23:15;;;;;;;7.13;2.75;;;20.30;96.70;;;;;;4998466;28;20037;-78
2021/11/13 12:26:01;;;;;;;4.03;2.30;;;20.60;96.70;;;;;;4999243;28;20530;-79
2021/11/13 12:28:30;;;;;;;4.32;2.05;;;20.90;96.70;;;;;;5000123;28;20519;-79
2021/11/13 12:31:15;;;;;;;5.45;2.55;;;21.10;96.70;;;;;;5000125;28;20049;-79
2021/11/13 12:33:55;;;;;;;4.40;2.35;;;21.20;96.70;;;;;;4979714;28;20046;-78
2021/11/13 12:36:29;;;;;;;4.75;2.08;;;21.30;96.70;;;;;;4999369;28;20519;-78
2021/11/13 12:39:14;;;;;;;4.22;2.03;;;21.10;96.70;;;;;;4999714;28;20050;-79
2021/11/13 12:41:54;;;;;;;4.82;2.15;;;20.90;96.70;;;;;;5000138;28;20058;-79
2021/11/13 12:44:29;;;;;;;5.80;2.40;;;20.70;96.70;;;;;;4983372;28;20097;-82
2021/11/13 12:47:08;;;;;;;4.80;2.83;;;20.50;96.70;;;;;;5001398;28;20115;-80
2021/11/13 12:49:40;;;;;;;3.20;2.20;;;20.20;96.70;;;;;;4997543;28;20061;-79
2021/11/13 12:52:14;;;;;;;3.80;2.50;;;20.10;96.70;;;;;;4982296;28;20462;-78
2021/11/13 12:55:15;;;;;;;3.47;2.33;;;20.00;96.70;;;;;;4997650;28;20076;-80